createdAt,value
2022-12-22T00:02:06.962Z,99772.38
2022-12-22T00:04:52.762Z,99767.97
2022-12-22T00:07:38.829Z,99768.00
2022-12-22T00:10:24.963Z,99767.97
2022-12-22T00:13:10.482Z,99767.06
2022-12-22T00:15:56.113Z,99755.66
2022-12-22T00:18:41.843Z,99766.22
2022-12-22T00:21:31.515Z,99749.50
2022-12-22T00:24:18.031Z,99749.50
2022-12-22T00:27:05.212Z,99738.06
2022-12-22T00:29:59.529Z,99738.94
2022-12-22T00:32:51.582Z,99718.69
2022-12-22T00:35:44.197Z,99708.13
2022-12-22T00:38:39.692Z,99712.53
2022-12-22T00:41:25.810Z,99700.22
2022-12-22T00:44:11.456Z,99707.25
2022-12-22T00:46:59.530Z,99702.84
2022-12-22T00:49:47.321Z,99697.56
2022-12-22T00:52:33.863Z,99689.59
2022-12-22T00:55:19.572Z,99692.31
2022-12-22T00:58:05.157Z,99687.00
2022-12-22T01:00:51.022Z,99691.41
2022-12-22T01:03:36.631Z,99679.06
2022-12-22T01:06:22.810Z,99677.31
2022-12-22T01:09:08.200Z,99672.91
2022-12-22T01:11:54.450Z,99666.75
2022-12-22T01:14:40.242Z,99667.63
2022-12-22T01:17:27.274Z,99666.75
2022-12-22T01:20:12.884Z,99666.72
2022-12-22T01:22:58.965Z,99665.88
2022-12-22T01:25:44.538Z,99662.34
2022-12-22T01:28:38.461Z,99661.44
2022-12-22T01:31:45.262Z,99640.38
2022-12-22T01:34:30.637Z,99648.28
2022-12-22T01:37:16.314Z,99646.53
2022-12-22T01:40:01.794Z,99653.56
2022-12-22T01:42:52.896Z,99634.22
2022-12-22T01:45:41.890Z,99643.00
2022-12-22T01:48:33.481Z,99635.97
2022-12-22T01:51:32.968Z,99638.59
2022-12-22T01:54:19.334Z,99628.94
2022-12-22T01:57:06.092Z,99623.66
2022-12-22T01:59:51.563Z,99616.63
2022-12-22T02:02:39.355Z,99610.47
2022-12-22T02:05:28.736Z,99606.94
2022-12-22T02:08:23.019Z,99597.28
2022-12-22T02:11:23.338Z,99604.31
2022-12-22T02:14:30.787Z,99602.56
2022-12-22T02:17:39.934Z,99609.66
2022-12-22T02:20:55.288Z,99600.81
2022-12-22T02:24:10.065Z,99595.56
2022-12-22T02:27:04.181Z,99595.56
2022-12-22T02:30:13.491Z,99592.94
2022-12-22T02:33:09.210Z,99588.53
2022-12-22T02:36:31.809Z,99576.19
2022-12-22T02:40:09.711Z,99571.81
2022-12-22T02:43:31.751Z,99574.44
2022-12-22T02:46:50.135Z,99564.81
2022-12-22T02:49:57.247Z,99562.16
2022-12-22T02:52:53.891Z,99557.78
2022-12-22T02:55:40.067Z,99556.91
2022-12-22T02:58:25.639Z,99552.50
2022-12-22T03:01:11.723Z,99547.22
2022-12-22T03:03:57.183Z,99556.91
2022-12-22T03:06:42.582Z,99546.34
2022-12-22T03:09:28.152Z,99543.72
2022-12-22T03:12:13.732Z,99548.97
2022-12-22T03:14:59.300Z,99542.81
2022-12-22T03:17:44.816Z,99545.47
2022-12-22T03:20:30.399Z,99542.81
2022-12-22T03:23:16.037Z,99539.31
2022-12-22T03:25:54.985Z,99537.53
2022-12-22T03:28:26.680Z,99535.78
2022-12-22T03:31:06.482Z,99533.16
2022-12-22T03:33:33.900Z,99528.75
2022-12-22T03:36:01.829Z,99535.78
2022-12-22T03:38:29.061Z,99529.63
2022-12-22T03:40:56.155Z,99512.94
2022-12-22T03:43:42.125Z,99529.63
2022-12-22T03:46:32.904Z,99522.59
2022-12-22T03:49:11.100Z,99521.72
2022-12-22T03:51:48.406Z,99519.97
2022-12-22T03:54:18.490Z,99512.91
2022-12-22T03:56:46.995Z,99517.31
2022-12-22T03:59:14.622Z,99521.69
2022-12-22T04:01:46.152Z,99529.59
2022-12-22T04:04:14.418Z,99519.06
2022-12-22T04:06:41.657Z,99522.56
2022-12-22T04:09:08.788Z,99519.06
2022-12-22T04:11:54.541Z,99515.53
2022-12-22T04:14:27.978Z,99513.78
2022-12-22T04:16:58.892Z,99511.13
2022-12-22T04:19:26.006Z,99509.38
2022-12-22T04:21:54.543Z,99501.47
2022-12-22T04:24:22.378Z,99504.97
2022-12-22T04:26:50.475Z,99505.84
2022-12-22T04:29:17.559Z,99498.81
2022-12-22T04:31:44.707Z,99500.56
2022-12-22T04:34:11.773Z,99505.84
2022-12-22T04:36:39.112Z,99490.91
2022-12-22T04:39:06.242Z,99491.78
2022-12-22T04:41:33.232Z,99500.56
2022-12-22T04:44:00.208Z,99485.63
2022-12-22T04:46:27.338Z,99480.34
2022-12-22T04:48:59.539Z,99483.88
2022-12-22T04:51:28.635Z,99486.50
2022-12-22T04:53:55.910Z,99480.34
2022-12-22T04:56:22.927Z,99480.34
2022-12-22T04:58:49.919Z,99480.38
2022-12-22T05:01:18.552Z,99469.81
2022-12-22T05:03:46.005Z,99476.84
2022-12-22T05:06:14.595Z,99469.81
2022-12-22T05:08:42.156Z,99470.69
2022-12-22T05:11:09.576Z,99468.94
2022-12-22T05:13:36.760Z,99470.69
2022-12-22T05:16:12.501Z,99477.72
2022-12-22T05:18:41.811Z,99461.91
2022-12-22T05:21:15.389Z,99468.91
2022-12-22T05:23:42.912Z,99468.91
2022-12-22T05:26:10.625Z,99464.50
2022-12-22T05:28:37.626Z,99457.47
2022-12-22T05:31:19.804Z,99453.94
2022-12-22T05:33:47.568Z,99458.34
2022-12-22T05:36:14.878Z,99459.22
2022-12-22T05:38:42.167Z,99456.59
2022-12-22T05:41:09.164Z,99457.44
2022-12-22T05:43:36.555Z,99453.03
2022-12-22T05:46:09.802Z,99466.22
2022-12-22T05:48:39.398Z,99467.13
2022-12-22T05:51:08.853Z,99455.66
2022-12-22T05:53:38.082Z,99443.34
2022-12-22T05:56:06.376Z,99453.00
2022-12-22T05:58:34.680Z,99450.34
2022-12-22T06:01:02.084Z,99445.06
2022-12-22T06:03:30.386Z,99459.13
2022-12-22T06:05:58.951Z,99465.28
2022-12-22T06:08:26.753Z,99469.69
2022-12-22T06:10:58.494Z,99469.66
2022-12-22T06:13:26.511Z,99469.66
2022-12-22T06:15:53.760Z,99453.84
2022-12-22T06:18:20.846Z,99450.31
2022-12-22T06:20:48.274Z,99457.38
2022-12-22T06:23:15.341Z,99439.78
2022-12-22T06:25:42.389Z,99434.53
2022-12-22T06:28:09.523Z,99430.13
2022-12-22T06:30:36.509Z,99439.81
2022-12-22T06:33:03.801Z,99449.47
2022-12-22T06:35:30.815Z,99445.97
2022-12-22T06:37:57.762Z,99463.59
2022-12-22T06:40:24.734Z,99460.94
2022-12-22T06:43:10.481Z,99460.03
2022-12-22T06:45:41.639Z,99441.56
2022-12-22T06:48:12.464Z,99445.97
2022-12-22T06:50:39.909Z,99472.28
2022-12-22T06:53:08.400Z,99493.25
2022-12-22T06:55:36.571Z,99493.19
2022-12-22T06:58:04.916Z,99500.09
2022-12-22T07:00:32.395Z,99494.81
2022-12-22T07:02:59.720Z,99526.38
2022-12-22T07:05:27.190Z,99510.59
2022-12-22T07:07:54.190Z,99529.91
2022-12-22T07:10:41.168Z,99529.72
2022-12-22T07:13:19.463Z,99532.41
2022-12-22T07:15:53.807Z,99532.44
2022-12-22T07:18:26.913Z,99495.50
2022-12-22T07:20:54.702Z,99485.88
2022-12-22T07:23:21.785Z,99479.63
2022-12-22T07:25:48.755Z,99488.38
2022-12-22T07:28:20.701Z,99509.47
2022-12-22T07:30:49.992Z,99488.38
2022-12-22T07:33:17.602Z,99513.78
2022-12-22T07:35:45.050Z,99497.94
2022-12-22T07:38:13.342Z,99475.97
2022-12-22T07:40:42.360Z,99483.03
2022-12-22T07:43:09.678Z,99492.66
2022-12-22T07:45:36.772Z,99474.25
2022-12-22T07:48:25.470Z,99475.06
2022-12-22T07:50:52.705Z,99472.38
2022-12-22T07:53:19.662Z,99475.91
2022-12-22T07:55:46.687Z,99488.06
2022-12-22T07:58:13.664Z,99459.13
2022-12-22T08:00:40.627Z,99460.00
2022-12-22T08:03:07.723Z,99468.84
2022-12-22T08:05:34.826Z,99461.75
2022-12-22T08:08:01.753Z,99458.16
2022-12-22T08:10:28.787Z,99442.19
2022-12-22T08:12:57.003Z,99444.13
2022-12-22T08:15:24.030Z,99436.19
2022-12-22T08:17:51.018Z,99445.75
2022-12-22T08:20:18.066Z,99449.38
2022-12-22T08:22:45.043Z,99445.84
2022-12-22T08:25:12.180Z,99433.56
2022-12-22T08:27:48.147Z,99445.88
2022-12-22T08:30:15.327Z,99441.63
2022-12-22T08:32:43.835Z,99452.06
2022-12-22T08:35:11.111Z,99441.63
2022-12-22T08:37:42.753Z,99437.31
2022-12-22T08:40:18.853Z,99444.34
2022-12-22T08:42:47.837Z,99443.38
2022-12-22T08:45:15.009Z,99433.78
2022-12-22T08:47:42.159Z,99422.31
2022-12-22T08:50:10.149Z,99431.19
2022-12-22T08:52:37.492Z,99429.38
2022-12-22T08:55:05.013Z,99431.13
2022-12-22T08:57:32.505Z,99425.00
2022-12-22T08:59:59.887Z,99437.34
2022-12-22T09:02:27.247Z,99435.56
2022-12-22T09:04:55.107Z,99435.63
2022-12-22T09:07:23.048Z,99449.75
2022-12-22T09:09:50.758Z,99441.84
2022-12-22T09:12:18.519Z,99448.00
2022-12-22T09:14:46.080Z,99445.38
2022-12-22T09:17:18.719Z,99430.50
2022-12-22T09:19:46.361Z,99427.88
2022-12-22T09:22:20.312Z,99432.25
2022-12-22T09:24:54.080Z,99425.25
2022-12-22T09:27:24.796Z,99420.94
2022-12-22T09:29:52.412Z,99438.50
2022-12-22T09:32:20.018Z,99436.72
2022-12-22T09:34:48.981Z,99435.00
2022-12-22T09:37:23.454Z,99441.16
2022-12-22T09:39:51.036Z,99459.44
2022-12-22T09:42:23.392Z,99463.72
2022-12-22T09:44:52.122Z,99462.84
2022-12-22T09:47:22.174Z,99458.38
2022-12-22T09:49:50.136Z,99456.63
2022-12-22T09:52:35.416Z,99477.63
2022-12-22T09:55:32.957Z,99479.34
2022-12-22T09:58:00.435Z,99477.38
2022-12-22T10:00:29.011Z,99457.31
2022-12-22T10:03:14.975Z,99474.00
2022-12-22T10:06:01.381Z,99477.44
2022-12-22T10:08:33.572Z,99476.63
2022-12-22T10:11:00.844Z,99468.72
2022-12-22T10:13:27.969Z,99487.97
2022-12-22T10:15:56.064Z,99452.78
2022-12-22T10:18:29.362Z,99465.97
2022-12-22T10:21:15.023Z,99442.28
2022-12-22T10:23:46.768Z,99420.94
2022-12-22T10:26:29.559Z,99439.44
2022-12-22T10:29:10.593Z,99442.13
2022-12-22T10:32:01.320Z,99428.88
2022-12-22T10:34:29.226Z,99432.38
2022-12-22T10:37:00.770Z,99424.53
2022-12-22T10:39:32.119Z,99424.50
2022-12-22T10:42:10.001Z,99456.22
2022-12-22T10:44:38.742Z,99435.03
2022-12-22T10:47:24.781Z,99436.69
2022-12-22T10:52:32.055Z,99436.75
2022-12-22T10:55:36.060Z,99441.13
2022-12-22T10:58:21.772Z,99417.25
2022-12-22T11:01:04.419Z,99429.63
2022-12-22T11:03:33.044Z,99428.69
2022-12-22T11:06:01.863Z,99443.78
2022-12-22T11:08:31.095Z,99439.41
2022-12-22T11:11:05.793Z,99443.78
2022-12-22T11:14:01.747Z,99427.00
2022-12-22T11:17:07.868Z,99432.28
2022-12-22T11:20:02.637Z,99431.38
2022-12-22T11:22:46.717Z,99436.66
2022-12-22T11:25:28.300Z,99439.28
2022-12-22T11:29:01.463Z,99436.78
2022-12-22T11:32:06.025Z,99448.28
2022-12-22T11:35:20.016Z,99465.84
2022-12-22T11:37:59.054Z,99472.88
2022-12-22T11:40:42.597Z,99472.84
2022-12-22T11:43:32.982Z,99458.75
2022-12-22T11:46:30.545Z,99462.19
2022-12-22T11:49:16.467Z,99460.44
2022-12-22T11:51:55.183Z,99454.25
2022-12-22T11:54:52.414Z,99445.44
2022-12-22T11:58:04.810Z,99457.81
2022-12-22T12:01:13.125Z,99459.63
2022-12-22T12:03:54.775Z,99459.63
2022-12-22T12:06:40.335Z,99463.13
2022-12-22T12:09:53.653Z,99473.81
2022-12-22T12:12:54.681Z,99481.72
2022-12-22T12:15:38.172Z,99480.84
2022-12-22T12:18:38.636Z,99482.56
2022-12-22T12:21:27.321Z,99484.31
2022-12-22T12:24:32.128Z,99493.13
2022-12-22T12:27:17.697Z,99505.53
2022-12-22T12:33:35.099Z,99501.94
2022-12-22T12:36:20.220Z,99508.16
2022-12-22T12:39:18.015Z,99504.53
2022-12-22T12:41:47.675Z,99501.91
2022-12-22T12:44:18.548Z,99512.41
2022-12-22T12:46:51.731Z,99504.44
2022-12-22T12:49:37.224Z,99480.50
2022-12-22T12:52:11.662Z,99477.84
2022-12-22T12:54:38.700Z,99476.19
2022-12-22T12:57:31.195Z,99486.84
2022-12-22T13:00:00.207Z,99475.34
2022-12-22T13:02:27.461Z,99474.47
2022-12-22T13:05:11.485Z,99465.56
2022-12-22T13:08:10.759Z,99483.97
2022-12-22T13:10:45.648Z,99464.53
2022-12-22T13:13:35.012Z,99488.47
2022-12-22T13:16:02.422Z,99491.09
2022-12-22T13:18:32.499Z,99540.91
2022-12-22T13:24:22.955Z,99490.44
2022-12-22T13:26:44.785Z,99498.00
2022-12-22T13:29:29.204Z,99462.13
2022-12-22T13:32:15.801Z,99445.56
2022-12-22T13:35:31.369Z,99454.75
2022-12-22T13:37:59.800Z,99448.47
2022-12-22T13:40:36.027Z,99426.72
2022-12-22T13:43:21.789Z,99413.75
2022-12-22T13:45:53.176Z,99428.03
2022-12-22T13:48:45.079Z,99432.56
2022-12-22T13:51:27.944Z,99442.34
2022-12-22T13:54:12.928Z,99452.97
2022-12-22T13:56:46.278Z,99430.03
2022-12-22T13:59:31.825Z,99446.88
2022-12-22T14:02:05.426Z,99446.09
2022-12-22T14:04:32.745Z,99454.84
2022-12-22T14:07:21.180Z,99456.69
2022-12-22T14:09:56.144Z,99454.88
2022-12-22T14:12:45.501Z,99474.28
2022-12-22T14:15:18.911Z,99462.81
2022-12-22T14:17:52.049Z,99482.34
2022-12-22T14:20:40.844Z,99488.59
2022-12-22T14:23:22.687Z,99495.59
2022-12-22T14:25:51.813Z,99501.78
2022-12-22T14:28:43.278Z,99505.34
2022-12-22T14:31:14.614Z,99513.31
2022-12-22T14:33:57.132Z,99509.75
2022-12-22T14:36:40.625Z,99507.19
2022-12-22T14:39:23.895Z,99539.16
2022-12-22T14:41:59.897Z,99559.69
2022-12-22T14:44:49.445Z,99571.34
2022-12-22T14:47:27.175Z,99576.72
2022-12-22T14:50:14.878Z,99572.38
2022-12-22T14:52:51.734Z,99587.44
2022-12-22T14:55:39.904Z,99590.13
2022-12-22T14:58:20.408Z,99600.75
2022-12-22T15:01:23.583Z,99605.16
2022-12-22T15:04:20.156Z,99632.50
2022-12-22T15:06:49.755Z,99644.84
2022-12-22T15:09:16.666Z,99661.56
2022-12-22T15:11:49.276Z,99667.75
2022-12-22T15:14:38.303Z,99670.34
2022-12-22T15:17:14.703Z,99685.34
2022-12-22T15:19:41.812Z,99687.09
2022-12-22T15:22:09.995Z,99673.88
2022-12-22T15:24:37.063Z,99674.75
2022-12-22T15:27:04.172Z,99674.78
2022-12-22T15:29:31.136Z,99667.72
2022-12-22T15:31:58.094Z,99677.41
2022-12-22T15:34:30.416Z,99669.50
2022-12-22T15:36:58.284Z,99665.97
2022-12-22T15:39:25.216Z,99658.06
2022-12-22T15:41:52.268Z,99655.41
2022-12-22T15:44:19.308Z,99655.41
2022-12-22T15:46:57.716Z,99654.53
2022-12-22T15:49:30.136Z,99651.88
2022-12-22T15:52:02.509Z,99645.72
2022-12-22T15:54:33.231Z,99652.78
2022-12-22T15:57:01.133Z,99657.16
2022-12-22T15:59:30.106Z,99652.75
2022-12-22T16:02:01.348Z,99657.16
2022-12-22T16:04:30.652Z,99661.53
2022-12-22T16:07:01.588Z,99647.47
2022-12-22T16:09:40.125Z,99640.41
2022-12-22T16:12:17.656Z,99638.66
2022-12-22T16:14:50.724Z,99638.66
2022-12-22T16:17:23.443Z,99622.78
2022-12-22T16:19:50.771Z,99610.47
2022-12-22T16:22:22.389Z,99606.03
2022-12-22T16:24:50.349Z,99600.78
2022-12-22T16:27:17.656Z,99597.25
2022-12-22T16:29:50.506Z,99597.25
2022-12-22T16:32:30.228Z,99599.00
2022-12-22T16:35:09.243Z,99582.28
2022-12-22T16:37:36.539Z,99591.03
2022-12-22T16:40:08.019Z,99580.47
2022-12-22T16:45:26.619Z,99569.88
2022-12-22T16:47:54.863Z,99562.00
2022-12-22T16:50:32.311Z,99561.09
2022-12-22T16:53:05.625Z,99544.44
2022-12-22T16:55:34.859Z,99547.94
2022-12-22T16:58:12.087Z,99555.00
2022-12-22T17:00:44.276Z,99564.69
2022-12-22T17:03:22.842Z,99574.34
2022-12-22T17:05:56.436Z,99568.19
2022-12-22T17:08:30.626Z,99580.47
2022-12-22T17:11:08.056Z,99585.75
2022-12-22T17:13:38.608Z,99560.25
2022-12-22T17:16:06.365Z,99558.50
2022-12-22T17:18:35.181Z,99557.59
2022-12-22T17:21:04.436Z,99558.47
2022-12-22T17:23:45.975Z,99551.44
2022-12-22T17:26:17.651Z,99546.19
2022-12-22T17:28:45.962Z,99540.88
2022-12-22T17:31:44.406Z,99546.19
2022-12-22T17:34:27.147Z,99541.75
2022-12-22T17:36:58.979Z,99537.34
2022-12-22T17:39:26.278Z,99528.53
2022-12-22T17:41:57.005Z,99525.91
2022-12-22T17:44:26.932Z,99513.59
2022-12-22T17:46:54.593Z,99510.09
2022-12-22T17:49:22.896Z,99498.63
2022-12-22T17:51:50.853Z,99507.44
2022-12-22T17:54:36.006Z,99505.69
2022-12-22T17:57:04.418Z,99504.78
2022-12-22T17:59:31.637Z,99495.06
2022-12-22T18:02:00.555Z,99495.94
2022-12-22T18:04:27.687Z,99477.44
2022-12-22T18:06:56.028Z,99480.97
2022-12-22T18:09:26.204Z,99472.16
2022-12-22T18:11:54.102Z,99470.38
2022-12-22T18:14:22.417Z,99457.19
2022-12-22T18:16:49.631Z,99462.47
2022-12-22T18:19:16.983Z,99465.13
2022-12-22T18:21:44.743Z,99466.00
2022-12-22T18:24:19.524Z,99460.69
2022-12-22T18:26:47.580Z,99451.03
2022-12-22T18:29:16.529Z,99452.84
2022-12-22T18:31:44.297Z,99451.09
2022-12-22T18:34:12.554Z,99453.69
2022-12-22T18:36:45.546Z,99444.00
2022-12-22T18:39:21.587Z,99455.44
2022-12-22T18:41:48.949Z,99448.44
2022-12-22T18:44:18.053Z,99452.84
2022-12-22T18:46:45.948Z,99448.44
2022-12-22T18:49:13.281Z,99454.59
2022-12-22T18:51:40.410Z,99454.63
2022-12-22T18:54:31.339Z,99461.69
2022-12-22T18:56:58.474Z,99474.03
2022-12-22T18:59:32.692Z,99473.16
2022-12-22T19:02:14.686Z,99478.47
2022-12-22T19:04:41.865Z,99473.22
2022-12-22T19:07:16.652Z,99481.13
2022-12-22T19:09:44.328Z,99475.00
2022-12-22T19:12:20.251Z,99468.88
2022-12-22T19:14:53.760Z,99475.03
2022-12-22T19:17:24.731Z,99472.38
2022-12-22T19:19:51.688Z,99464.47
2022-12-22T19:22:18.799Z,99453.94
2022-12-22T19:24:45.757Z,99454.81
2022-12-22T19:27:42.372Z,99456.59
2022-12-22T19:30:25.732Z,99461.84
2022-12-22T19:33:01.656Z,99448.69
2022-12-22T19:35:32.043Z,99456.59
2022-12-22T19:38:03.527Z,99453.94
2022-12-22T19:40:33.467Z,99450.44
2022-12-22T19:43:00.655Z,99457.47
2022-12-22T19:45:35.455Z,99448.69
2022-12-22T19:48:04.494Z,99434.59
2022-12-22T19:50:33.045Z,99420.53
2022-12-22T19:53:00.918Z,99425.81
2022-12-22T19:55:31.619Z,99418.81
2022-12-22T19:57:59.242Z,99413.53
2022-12-22T20:00:28.019Z,99407.34
2022-12-22T20:02:57.648Z,99411.75
2022-12-22T20:05:31.203Z,99412.63
2022-12-22T20:08:02.473Z,99402.06
2022-12-22T20:10:31.813Z,99386.25
2022-12-22T20:13:13.493Z,99401.19
2022-12-22T20:15:40.636Z,99393.28
2022-12-22T20:18:30.245Z,99388.00
2022-12-22T20:21:01.296Z,99392.41
2022-12-22T20:23:31.146Z,99376.56
2022-12-22T20:26:02.932Z,99377.44
2022-12-22T20:28:34.520Z,99366.88
2022-12-22T20:31:02.757Z,99359.81
2022-12-22T20:33:31.306Z,99351.91
2022-12-22T20:36:01.109Z,99360.72
2022-12-22T20:38:40.110Z,99351.91
2022-12-22T20:41:10.394Z,99344.00
2022-12-22T20:43:38.740Z,99349.28
2022-12-22T20:46:17.909Z,99347.50
2022-12-22T20:48:58.209Z,99341.34
2022-12-22T20:51:29.320Z,99336.09
2022-12-22T20:53:57.353Z,99331.69
2022-12-22T20:56:37.707Z,99334.34
2022-12-22T20:59:19.004Z,99333.47
2022-12-22T21:01:47.780Z,99328.19
2022-12-22T21:04:15.888Z,99329.94
2022-12-22T21:06:57.156Z,99323.78
2022-12-22T21:09:24.590Z,99319.41
2022-12-22T21:11:51.602Z,99322.03
2022-12-22T21:14:21.046Z,99315.88
2022-12-22T21:16:49.040Z,99315.00
2022-12-22T21:19:19.352Z,99309.72
2022-12-22T21:21:47.208Z,99307.09
2022-12-22T21:24:14.284Z,99300.06
2022-12-22T21:26:46.371Z,99297.41
2022-12-22T21:29:19.934Z,99286.88
2022-12-22T21:31:47.011Z,99286.84
2022-12-22T21:34:14.275Z,99286.84
2022-12-22T21:36:45.087Z,99283.34
2022-12-22T21:39:41.950Z,99284.22
2022-12-22T21:42:20.020Z,99266.63
2022-12-22T21:44:47.377Z,99255.22
2022-12-22T21:47:18.523Z,99252.59
2022-12-22T21:49:45.473Z,99250.81
2022-12-22T21:52:12.958Z,99253.41
2022-12-22T21:54:39.936Z,99234.09
2022-12-22T21:57:06.933Z,99238.50
2022-12-22T21:59:33.883Z,99235.88
2022-12-22T22:02:00.897Z,99225.31
2022-12-22T22:04:28.018Z,99232.34
2022-12-22T22:06:54.997Z,99238.47
2022-12-22T22:09:22.040Z,99235.00
2022-12-22T22:12:07.493Z,99227.06
2022-12-22T22:14:34.608Z,99218.28
2022-12-22T22:17:01.621Z,99218.28
2022-12-22T22:19:28.624Z,99227.97
2022-12-22T22:21:55.615Z,99223.59
2022-12-22T22:24:22.589Z,99235.88
2022-12-22T22:26:51.680Z,99242.00
2022-12-22T22:29:18.948Z,99235.00
2022-12-22T22:31:46.050Z,99242.03
2022-12-22T22:34:13.300Z,99245.56
2022-12-22T22:36:40.393Z,99231.50
2022-12-22T22:39:07.344Z,99240.31
2022-12-22T22:41:40.970Z,99238.53
2022-12-22T22:44:10.051Z,99235.03
2022-12-22T22:46:37.184Z,99230.63
2022-12-22T22:49:04.186Z,99220.09
2022-12-22T22:51:31.374Z,99213.94
2022-12-22T22:53:58.499Z,99206.00
2022-12-22T22:56:25.660Z,99189.31
2022-12-22T22:58:52.661Z,99193.72
2022-12-22T23:01:19.828Z,99174.38
2022-12-22T23:03:46.985Z,99184.91
2022-12-22T23:06:14.340Z,99180.53
2022-12-22T23:08:41.354Z,99171.72
2022-12-22T23:11:14.833Z,99177.88
2022-12-22T23:13:43.205Z,99179.63
2022-12-22T23:16:10.560Z,99162.94
2022-12-22T23:18:37.961Z,99163.81
2022-12-22T23:21:07.420Z,99165.59
2022-12-22T23:23:36.175Z,99161.19
2022-12-22T23:26:06.602Z,99147.97
2022-12-22T23:28:34.275Z,99156.78
2022-12-22T23:31:01.505Z,99163.81
2022-12-22T23:33:31.796Z,99161.19
2022-12-22T23:36:05.351Z,99144.47
2022-12-22T23:38:32.659Z,99152.38
2022-12-22T23:41:10.964Z,99157.66
2022-12-22T23:43:38.463Z,99148.88
2022-12-22T23:46:55.668Z,99158.56
2022-12-22T23:49:22.804Z,99129.53
2022-12-22T23:51:49.752Z,99135.69
2022-12-22T23:54:16.788Z,99149.78
2022-12-22T23:56:43.762Z,99141.00
2022-12-22T23:59:10.771Z,99150.66
